Time;durP1;ratioP1;P1;durP2;ratioP2;P2;SDS_P1;SDS_P2;PMS_P1;PMS_P2;Temp;Humidity;BMP_temperature;BMP_pressure;BME280_temperature;BME280_humidity;BME280_pressure;Samples;Min_cycle;Max_cycle;Signal;HPM_P1;HPM_P2
2021/11/06 00:01:08;;;;;;;20.75;11.38;;;;;;;7.13;100.00;100030.11;4306137;81;28470;-82
2021/11/06 00:07:09;;;;;;;24.32;12.25;;;;;;;7.04;100.00;100037.41;4317880;81;28475;-80
2021/11/06 00:13:11;;;;;;;23.38;12.65;;;;;;;7.05;100.00;100045.75;4305836;82;28476;-80
2021/11/06 00:19:12;;;;;;;20.20;10.50;;;;;;;6.95;100.00;100046.84;4305899;81;28481;-81
2021/11/06 00:25:14;;;;;;;18.02;9.88;;;;;;;6.96;100.00;100050.33;4319245;81;28431;-81
2021/11/06 00:31:16;;;;;;;18.92;10.98;;;;;;;6.84;100.00;100061.98;4318656;81;28508;-82
2021/11/06 00:37:18;;;;;;;17.37;10.03;;;;;;;6.76;100.00;100064.73;4321791;81;28449;-81
2021/11/06 00:43:19;;;;;;;18.15;10.30;;;;;;;6.69;100.00;100064.10;4302272;81;28508;-81
2021/11/06 00:49:21;;;;;;;16.80;9.30;;;;;;;6.55;100.00;100071.58;4291140;83;28443;-79
2021/11/06 00:55:23;;;;;;;15.45;9.43;;;;;;;6.56;100.00;100067.89;4291965;81;28498;-81
2021/11/06 01:01:24;;;;;;;16.65;9.95;;;;;;;6.67;100.00;100076.82;4290993;82;28501;-80
2021/11/06 01:07:25;;;;;;;17.17;9.88;;;;;;;6.65;100.00;100082.86;4291147;81;28520;-80
2021/11/06 01:13:27;;;;;;;15.93;9.60;;;;;;;6.67;100.00;100084.02;4285003;81;28466;-80
2021/11/06 01:19:28;;;;;;;13.30;8.23;;;;;;;6.66;100.00;100090.35;4272261;81;28463;-80
2021/11/06 01:25:30;;;;;;;14.50;8.58;;;;;;;6.50;100.00;100085.97;4292254;81;28481;-81
2021/11/06 01:31:32;;;;;;;14.80;8.75;;;;;;;6.57;100.00;100083.44;4289073;81;28524;-81
2021/11/06 01:37:33;;;;;;;14.05;8.88;;;;;;;6.59;100.00;100090.77;4289701;83;28565;-81
2021/11/06 01:43:34;;;;;;;14.45;8.90;;;;;;;6.55;100.00;100084.42;4300901;81;28524;-80
2021/11/06 01:49:38;;;;;;;14.23;8.73;;;;;;;6.41;100.00;100085.20;4320898;81;28492;-81
2021/11/06 01:55:40;;;;;;;14.03;8.08;;;;;;;6.30;100.00;100092.30;4305575;81;28469;-80
2021/11/06 02:01:41;;;;;;;15.63;9.20;;;;;;;6.29;100.00;100092.78;4325411;81;28443;-81
2021/11/06 02:07:44;;;;;;;15.48;9.50;;;;;;;6.14;100.00;100091.37;4280050;81;28495;-82
2021/11/06 02:13:46;;;;;;;18.32;9.53;;;;;;;6.10;100.00;100094.08;4312285;81;28486;-80
2021/11/06 02:19:47;;;;;;;15.63;9.45;;;;;;;6.09;100.00;100093.75;4289062;82;28550;-81
2021/11/06 02:25:49;;;;;;;14.20;8.78;;;;;;;6.09;100.00;100087.08;4279637;82;28450;-79
2021/11/06 02:31:50;;;;;;;16.87;9.83;;;;;;;5.98;100.00;100085.59;4325831;81;28489;-81
2021/11/06 02:37:51;;;;;;;16.27;9.40;;;;;;;5.94;100.00;100094.97;4312882;82;28473;-81
2021/11/06 02:43:53;;;;;;;15.10;9.50;;;;;;;5.97;100.00;100094.61;4292246;82;28584;-81
2021/11/06 02:49:54;;;;;;;13.43;8.33;;;;;;;5.89;100.00;100093.34;4266289;82;28502;-80
2021/11/06 02:55:56;;;;;;;16.55;8.70;;;;;;;5.95;100.00;100092.63;4290852;82;28479;-81
2021/11/06 03:01:57;;;;;;;15.55;8.95;;;;;;;5.86;100.00;100094.52;4274658;82;28485;-81
2021/11/06 03:07:59;;;;;;;15.10;8.95;;;;;;;5.77;100.00;100095.03;4276539;82;28475;-82
2021/11/06 03:14:03;;;;;;;17.62;9.78;;;;;;;5.74;100.00;100094.58;4314718;82;28507;-81
2021/11/06 03:20:07;;;;;;;14.20;8.65;;;;;;;5.61;100.00;100106.60;4322743;81;28482;-81
2021/11/06 03:26:08;;;;;;;14.03;8.80;;;;;;;5.49;100.00;100106.16;4312520;82;28569;-81
2021/11/06 03:32:10;;;;;;;14.30;8.53;;;;;;;5.36;100.00;100113.36;4171792;83;28526;-81
2021/11/06 03:38:11;;;;;;;15.40;10.05;;;;;;;5.29;100.00;100110.54;4262748;83;28554;-81
2021/11/06 03:44:12;;;;;;;16.60;10.38;;;;;;;5.11;100.00;100117.90;4264733;82;28518;-80
2021/11/06 03:50:14;;;;;;;16.05;9.40;;;;;;;5.05;100.00;100130.07;4297122;83;28467;-81
2021/11/06 03:56:15;;;;;;;15.30;8.98;;;;;;;4.81;100.00;100134.90;4297562;83;28505;-81
2021/11/06 04:02:17;;;;;;;13.35;8.53;;;;;;;4.69;100.00;100129.09;4279922;83;28458;-80
2021/11/06 04:08:19;;;;;;;13.18;8.50;;;;;;;4.53;100.00;100135.20;4241746;83;28507;-79
2021/11/06 04:14:20;;;;;;;14.95;9.53;;;;;;;4.36;100.00;100143.66;4260116;83;28485;-79
2021/11/06 04:20:22;;;;;;;16.45;10.00;;;;;;;4.21;100.00;100149.63;4272277;83;28681;-79
2021/11/06 04:26:23;;;;;;;15.88;9.55;;;;;;;4.18;100.00;100144.12;4303240;83;28533;-79
2021/11/06 04:32:24;;;;;;;15.72;9.60;;;;;;;4.03;100.00;100150.56;4280522;83;28525;-78
2021/11/06 04:38:26;;;;;;;16.35;9.15;;;;;;;3.99;100.00;100158.54;4249775;83;28571;-79
2021/11/06 04:44:27;;;;;;;15.68;8.88;;;;;;;3.84;100.00;100167.62;4276625;82;28564;-79
2021/11/06 04:50:29;;;;;;;16.40;8.98;;;;;;;3.99;100.00;100165.20;4291763;82;28859;-81
2021/11/06 04:56:30;;;;;;;17.42;9.60;;;;;;;4.08;100.00;100175.36;4306747;82;28569;-79
2021/11/06 05:02:32;;;;;;;16.87;9.23;;;;;;;4.02;100.00;100172.84;4288174;82;28553;-78
2021/11/06 05:08:33;;;;;;;16.87;9.55;;;;;;;4.18;100.00;100176.58;4269923;82;28538;-80
2021/11/06 05:14:35;;;;;;;14.03;8.25;;;;;;;4.27;100.00;100182.27;4305102;82;28581;-80
2021/11/06 05:20:38;;;;;;;13.88;7.97;;;;;;;4.43;100.00;100188.63;4271221;82;28462;-82
2021/11/06 05:26:40;;;;;;;11.50;7.45;;;;;;;4.66;100.00;100195.51;4311969;82;28527;-79
2021/11/06 05:32:41;;;;;;;12.98;8.50;;;;;;;4.90;100.00;100196.53;4306640;82;28451;-80
2021/11/06 05:38:42;;;;;;;12.98;7.62;;;;;;;5.08;100.00;100199.55;4301595;82;28471;-81
2021/11/06 05:44:44;;;;;;;12.35;7.60;;;;;;;5.07;100.00;100201.88;4315053;82;28481;-79
2021/11/06 05:50:45;;;;;;;12.33;6.37;;;;;;;5.08;100.00;100206.22;4249142;82;28578;-84
2021/11/06 05:56:47;;;;;;;11.30;6.78;;;;;;;5.27;100.00;100210.37;4286463;81;28491;-83
2021/11/06 06:02:49;;;;;;;11.63;7.00;;;;;;;5.40;100.00;100224.53;4272777;81;28530;-81
2021/11/06 06:08:51;;;;;;;12.90;8.03;;;;;;;5.48;100.00;100221.87;4291513;81;28490;-83
2021/11/06 06:14:52;;;;;;;17.70;8.48;;;;;;;5.63;100.00;100239.36;4282340;81;28509;-79
2021/11/06 06:20:53;;;;;;;12.37;8.23;;;;;;;5.69;100.00;100235.18;4298545;81;28522;-80
2021/11/06 06:26:55;;;;;;;11.48;6.90;;;;;;;5.80;100.00;100236.64;4291129;81;28491;-80
2021/11/06 06:32:56;;;;;;;9.50;6.30;;;;;;;5.81;100.00;100241.82;4289962;81;28470;-82
2021/11/06 06:38:58;;;;;;;12.93;6.83;;;;;;;5.84;100.00;100244.14;4255179;82;28503;-82
2021/11/06 06:45:00;;;;;;;8.93;5.97;;;;;;;5.98;100.00;100248.44;4281193;81;28522;-78
2021/11/06 06:51:01;;;;;;;10.53;5.80;;;;;;;6.06;100.00;100259.13;4291955;81;28471;-81
2021/11/06 06:57:03;;;;;;;11.55;6.08;;;;;;;6.22;100.00;100256.91;4302540;81;28501;-83
2021/11/06 07:03:05;;;;;;;9.93;5.10;;;;;;;6.27;100.00;100265.74;4319114;81;28510;-80
2021/11/06 07:09:07;;;;;;;10.38;5.62;;;;;;;6.46;100.00;100274.36;4320152;81;28443;-82
2021/11/06 07:15:09;;;;;;;12.60;6.65;;;;;;;6.50;100.00;100281.01;4297634;81;28525;-81
2021/11/06 07:21:10;;;;;;;14.60;7.30;;;;;;;6.63;100.00;100281.30;4330398;81;28456;-80
2021/11/06 07:27:12;;;;;;;12.78;7.45;;;;;;;6.67;100.00;100276.45;4302974;81;28457;-82
2021/11/06 07:33:13;;;;;;;12.10;6.30;;;;;;;6.76;100.00;100283.91;4305219;81;28449;-82
2021/11/06 07:39:17;;;;;;;10.93;6.45;;;;;;;6.82;100.00;100281.84;4298452;81;28509;-82
2021/11/06 07:45:19;;;;;;;11.00;7.00;;;;;;;7.00;100.00;100284.77;4299298;81;28564;-79
2021/11/06 07:51:28;;;;;;;11.15;5.65;;;;;;;7.21;100.00;100287.63;4319300;81;28505;-79
2021/11/06 07:57:29;;;;;;;12.00;5.30;;;;;;;7.30;100.00;100298.27;4315287;81;28664;-79
2021/11/06 08:03:31;;;;;;;7.65;5.17;;;;;;;7.25;100.00;100303.67;4320059;81;28449;-82
2021/11/06 08:09:33;;;;;;;6.90;4.50;;;;;;;7.21;100.00;100310.89;4262916;82;28459;-81
2021/11/06 08:15:34;;;;;;;7.80;4.20;;;;;;;7.25;100.00;100311.69;4226116;82;28465;-80
2021/11/06 08:21:36;;;;;;;7.33;4.40;;;;;;;7.32;100.00;100313.14;4289489;81;28507;-83
2021/11/06 08:27:37;;;;;;;8.23;4.25;;;;;;;7.48;100.00;100313.53;4311405;81;28525;-77
2021/11/06 08:33:38;;;;;;;6.67;4.28;;;;;;;7.57;100.00;100319.64;4279532;82;28513;-76
2021/11/06 08:39:40;;;;;;;8.50;4.95;;;;;;;7.76;100.00;100323.68;4308926;82;28532;-78
2021/11/06 08:45:46;;;;;;;5.42;3.65;;;;;;;7.91;100.00;100320.19;4299228;81;28481;-76
2021/11/06 08:51:49;;;;;;;8.38;4.47;;;;;;;8.08;100.00;100327.06;4282744;82;28503;-76
2021/11/06 08:57:51;;;;;;;7.95;4.62;;;;;;;8.28;100.00;100327.86;4250033;82;28456;-77
2021/11/06 09:03:52;;;;;;;6.67;4.33;;;;;;;8.44;100.00;100330.03;4244903;83;28551;-76
2021/11/06 09:09:54;;;;;;;6.75;4.10;;;;;;;8.47;100.00;100317.59;4172393;83;28463;-76
2021/11/06 09:15:57;;;;;;;6.60;3.70;;;;;;;8.56;100.00;100321.86;4275105;82;28548;-78
2021/11/06 09:21:58;;;;;;;5.30;2.87;;;;;;;8.74;100.00;100311.27;4248074;83;28451;-78
2021/11/06 09:27:59;;;;;;;4.28;2.65;;;;;;;8.84;100.00;100324.37;4242559;83;28559;-75
2021/11/06 09:34:01;;;;;;;4.17;2.40;;;;;;;8.98;99.52;100326.70;4242769;82;28457;-80
2021/11/06 09:40:08;;;;;;;4.15;2.40;;;;;;;9.25;94.74;100325.13;4275536;83;28451;-76
2021/11/06 09:46:09;;;;;;;4.67;2.40;;;;;;;9.19;84.95;100328.07;4278165;82;28519;-77
2021/11/06 09:52:11;;;;;;;5.22;2.55;;;;;;;9.35;89.16;100329.67;4275726;82;28462;-78
2021/11/06 09:58:13;;;;;;;5.35;2.80;;;;;;;9.39;83.20;100315.37;4263469;82;28521;-78
2021/11/06 10:04:15;;;;;;;4.78;2.72;;;;;;;9.48;83.51;100315.56;4243916;82;28454;-78
2021/11/06 10:10:18;;;;;;;4.67;2.37;;;;;;;9.54;86.44;100309.93;4314493;81;28449;-77
2021/11/06 10:16:31;;;;;;;3.80;2.30;;;;;;;9.59;81.05;100308.01;4306614;81;28485;-79
2021/11/06 10:22:32;;;;;;;3.27;1.80;;;;;;;9.48;78.43;100302.14;4320445;82;28654;-76
2021/11/06 10:28:34;;;;;;;3.62;1.57;;;;;;;9.58;75.41;100295.61;4297062;82;28478;-77
2021/11/06 10:34:37;;;;;;;3.25;1.40;;;;;;;9.74;76.84;100283.76;4297639;82;28467;-80
2021/11/06 10:40:55;;;;;;;2.40;1.60;;;;;;;9.81;75.56;100267.69;4261384;82;28461;-78
2021/11/06 10:46:57;;;;;;;1.27;0.80;;;;;;;9.79;76.24;100272.43;4262289;82;28484;-78
2021/11/06 10:52:58;;;;;;;2.27;1.57;;;;;;;9.79;71.62;100264.37;4250560;83;28450;-78
2021/11/06 10:59:16;;;;;;;2.02;1.37;;;;;;;9.80;75.47;100251.26;4235041;83;28466;-76
2021/11/06 11:05:35;;;;;;;1.70;1.10;;;;;;;10.01;71.17;100246.34;4253181;83;28486;-77
2021/11/06 11:11:37;;;;;;;1.65;1.05;;;;;;;10.03;72.74;100237.03;4132134;83;28478;-76
2021/11/06 11:17:43;;;;;;;3.42;1.98;;;;;;;10.35;72.95;100232.55;4265277;83;28505;-76
2021/11/06 11:24:07;;;;;;;2.20;1.37;;;;;;;10.36;70.58;100227.49;4162218;84;28871;-78
2021/11/06 11:30:11;;;;;;;2.55;1.30;;;;;;;10.49;71.53;100231.29;4272473;82;28458;-80
2021/11/06 11:36:18;;;;;;;2.77;1.85;;;;;;;10.62;70.71;100223.79;4152978;83;28509;-78
2021/11/06 11:42:30;;;;;;;1.47;1.15;;;;;;;10.49;67.69;100222.72;4171954;83;28542;-77
2021/11/06 11:48:34;;;;;;;2.72;1.30;;;;;;;10.51;67.87;100223.34;4269358;82;28497;-79
2021/11/06 11:54:57;;;;;;;3.37;1.72;;;;;;;10.40;66.32;100213.14;4320081;81;28533;-78
2021/11/06 12:01:01;;;;;;;2.55;1.40;;;;;;;10.43;68.77;100206.03;4299613;81;28516;-77
2021/11/06 12:07:14;;;;;;;2.20;1.47;;;;;;;10.30;66.73;100209.46;4310495;81;28512;-79
2021/11/06 12:13:33;;;;;;;2.90;1.72;;;;;;;10.46;69.21;100202.44;4304705;82;28486;-74
2021/11/06 12:19:50;;;;;;;3.45;2.35;;;;;;;10.53;67.60;100200.30;4302325;81;28445;-77
2021/11/06 12:26:13;;;;;;;4.10;2.00;;;;;;;10.57;66.85;100194.81;4310078;82;28451;-77
2021/11/06 12:32:19;;;;;;;2.50;1.50;;;;;;;10.60;68.03;100193.05;4304326;81;28529;-77
2021/11/06 12:38:22;;;;;;;;;;;;;;;10.54;66.75;100197.38;4289551;82;28441;-77
2021/11/06 12:44:28;;;;;;;3.17;1.40;;;;;;;10.31;66.28;100197.17;4286866;81;20208;-75
2021/11/06 12:50:29;;;;;;;2.70;1.45;;;;;;;10.37;67.37;100178.07;4212359;82;28588;-77
2021/11/06 12:56:52;;;;;;;4.25;2.08;;;;;;;10.21;66.39;100185.97;4198032;83;28508;-78
2021/11/06 13:02:56;;;;;;;3.40;2.08;;;;;;;10.20;67.60;100181.62;4273692;82;28490;-76
2021/11/06 13:09:21;;;;;;;3.52;1.67;;;;;;;10.18;69.96;100172.94;4261861;82;28488;-77
2021/11/06 13:15:22;;;;;;;3.02;1.40;;;;;;;10.27;69.50;100162.33;4274868;82;28509;-78
2021/11/06 13:21:23;;;;;;;3.83;1.30;;;;;;;10.17;67.98;100157.85;4253866;82;28520;-78
2021/11/06 13:27:55;;;;;;;5.17;1.42;;;;;;;10.13;67.12;100156.58;4201616;83;28517;-81
2021/11/06 13:33:57;;;;;;;2.55;1.40;;;;;;;10.04;67.49;100145.19;4303651;81;28599;-81
2021/11/06 13:40:05;;;;;;;2.33;1.40;;;;;;;9.95;67.85;100142.34;4313441;81;28449;-84
2021/11/06 13:52:43;;;;;;;3.12;1.50;;;;;;;9.83;67.51;100131.33;4180682;84;28511;-80
2021/11/06 13:58:44;;;;;;;3.22;1.55;;;;;;;9.81;67.95;100132.05;4245187;83;28457;-79
2021/11/06 14:04:49;;;;;;;3.42;1.65;;;;;;;9.76;69.44;100129.96;4244985;83;28483;-80
2021/11/06 14:10:53;;;;;;;3.30;1.57;;;;;;;9.65;70.41;100119.28;4251523;83;28541;-80
2021/11/06 14:17:08;;;;;;;3.45;1.60;;;;;;;9.59;69.89;100129.45;4182702;83;28530;-81
2021/11/06 14:23:13;;;;;;;4.28;1.72;;;;;;;9.49;71.17;100115.88;4263589;81;28487;-81
2021/11/06 14:29:17;;;;;;;3.20;1.70;;;;;;;9.35;73.05;100112.27;4188332;83;28446;-80
2021/11/06 14:35:18;;;;;;;3.35;1.70;;;;;;;9.28;73.09;100107.89;4298198;81;28528;-81
2021/11/06 14:41:24;;;;;;;3.45;1.72;;;;;;;9.20;74.47;100108.35;4295334;81;28455;-80
2021/11/06 14:47:29;;;;;;;3.10;1.87;;;;;;;9.08;75.53;100107.77;4170934;84;28510;-80
2021/11/06 14:53:33;;;;;;;3.20;1.65;;;;;;;8.95;76.62;100111.16;4255927;82;28507;-80
2021/11/06 14:59:34;;;;;;;4.58;1.90;;;;;;;8.73;79.81;100121.91;4279497;82;28552;-81
2021/11/06 15:05:40;;;;;;;4.78;1.85;;;;;;;8.51;82.77;100124.07;4317285;81;28472;-81
2021/11/06 15:11:41;;;;;;;5.72;2.37;;;;;;;8.28;86.17;100129.59;4316545;81;28526;-82
2021/11/06 15:17:59;;;;;;;5.97;2.37;;;;;;;8.06;86.87;100121.48;4294516;81;28481;-81
2021/11/06 15:24:00;;;;;;;4.20;2.35;;;;;;;7.89;88.50;100114.17;4306352;81;28535;-80
2021/11/06 15:30:03;;;;;;;4.60;2.40;;;;;;;7.59;91.75;100107.50;4327149;81;28534;-79
2021/11/06 15:36:05;;;;;;;4.92;1.98;;;;;;;7.36;95.06;100108.42;4302983;81;28456;-81
2021/11/06 15:42:06;;;;;;;5.05;2.27;;;;;;;7.05;99.02;100115.27;4256201;82;28539;-82
2021/11/06 15:48:12;;;;;;;4.05;2.10;;;;;;;6.82;100.00;100111.61;4296935;81;28493;-81
2021/11/06 15:54:11;;;;;;;4.97;2.45;;;;;;;6.61;100.00;100113.63;4301268;81;28488;-79
2021/11/06 16:00:15;;;;;;;5.40;2.72;;;;;;;6.42;100.00;100116.25;4315687;81;28442;-81
2021/11/06 16:06:19;;;;;;;4.65;2.35;;;;;;;6.12;100.00;100116.09;4312478;80;28535;-81
2021/11/06 16:12:21;;;;;;;4.72;2.05;;;;;;;5.99;100.00;100117.98;4308263;81;28581;-80
2021/11/06 16:18:27;;;;;;;5.03;2.25;;;;;;;5.84;100.00;100120.55;4306290;81;28446;-80
2021/11/06 16:24:26;;;;;;;6.42;2.90;;;;;;;5.75;100.00;100123.73;4316530;81;28520;-80
2021/11/06 16:30:27;;;;;;;5.22;2.62;;;;;;;5.71;100.00;100129.09;4199687;83;28478;-80
2021/11/06 16:36:29;;;;;;;6.45;2.90;;;;;;;5.58;100.00;100138.48;4315459;81;28478;-80
2021/11/06 16:42:30;;;;;;;7.22;3.62;;;;;;;5.47;100.00;100131.34;4310794;81;28511;-80
2021/11/06 16:48:35;;;;;;;8.10;3.95;;;;;;;5.30;100.00;100134.02;4299255;81;28442;-81
2021/11/06 16:54:38;;;;;;;9.15;4.08;;;;;;;5.19;100.00;100141.89;4301430;81;28544;-82
2021/11/06 17:00:41;;;;;;;8.68;4.58;;;;;;;5.09;100.00;100150.56;4315157;81;28523;-82
2021/11/06 17:06:46;;;;;;;14.18;5.30;;;;;;;4.92;100.00;100145.22;4309948;82;28463;-80
2021/11/06 17:12:50;;;;;;;13.18;5.95;;;;;;;4.95;100.00;100146.73;4302940;81;28509;-80
2021/11/06 17:18:52;;;;;;;15.03;6.55;;;;;;;4.90;100.00;100153.08;4293539;81;28470;-79
2021/11/06 17:24:53;;;;;;;11.22;5.15;;;;;;;4.81;100.00;100151.73;4307814;81;28527;-77
2021/11/06 17:30:55;;;;;;;15.40;7.35;;;;;;;4.66;100.00;100160.88;4325028;81;28504;-79
2021/11/06 17:36:57;;;;;;;14.95;7.15;;;;;;;4.64;100.00;100157.55;4317031;81;28480;-81
2021/11/06 17:42:58;;;;;;;13.32;6.58;;;;;;;4.59;100.00;100147.39;4323164;81;28432;-79
2021/11/06 17:49:00;;;;;;;16.97;8.05;;;;;;;4.40;100.00;100156.48;4235428;82;28960;-80
2021/11/06 17:55:02;;;;;;;20.95;9.50;;;;;;;4.28;100.00;100161.30;4258585;82;28508;-78
2021/11/06 18:01:04;;;;;;;21.12;9.35;;;;;;;4.10;100.00;100145.94;4249334;82;28459;-80
2021/11/06 18:07:06;;;;;;;21.73;10.05;;;;;;;4.01;100.00;100147.72;4269005;82;28479;-79
2021/11/06 18:13:08;;;;;;;23.62;11.10;;;;;;;3.99;100.00;100148.38;4268063;82;28557;-80
2021/11/06 18:19:11;;;;;;;27.58;13.58;;;;;;;4.10;100.00;100140.61;4273007;82;28470;-79
2021/11/06 18:25:15;;;;;;;33.18;15.35;;;;;;;4.20;100.00;100128.00;4278419;82;28471;-79
2021/11/06 18:31:16;;;;;;;30.80;15.63;;;;;;;4.23;100.00;100117.02;4229672;82;28524;-80
2021/11/06 18:37:17;;;;;;;39.35;18.25;;;;;;;4.12;100.00;100109.34;4267527;82;28552;-79
2021/11/06 18:43:20;;;;;;;34.67;16.52;;;;;;;4.09;100.00;100101.17;4259021;83;28549;-79
2021/11/06 18:49:23;;;;;;;33.63;15.55;;;;;;;3.96;100.00;100104.80;4271540;81;28499;-78
2021/11/06 18:55:24;;;;;;;38.60;17.62;;;;;;;3.78;100.00;100101.73;4309529;81;28489;-81
2021/11/06 19:01:25;;;;;;;37.48;16.25;;;;;;;3.70;100.00;100109.71;4313366;81;28469;-80
2021/11/06 19:07:26;;;;;;;29.18;13.78;;;;;;;3.63;100.00;100110.34;4320587;81;28521;-80
2021/11/06 19:13:30;;;;;;;40.80;17.48;;;;;;;3.55;100.00;100121.44;4315675;81;28514;-79
2021/11/06 19:19:31;;;;;;;46.05;19.95;;;;;;;3.52;100.00;100124.39;4316390;81;28429;-78
2021/11/06 19:25:32;;;;;;;46.08;21.65;;;;;;;3.46;100.00;100122.72;4307915;81;28539;-78
2021/11/06 19:31:34;;;;;;;51.53;23.60;;;;;;;3.38;100.00;100104.06;4321907;81;28453;-78
2021/11/06 19:37:37;;;;;;;54.75;26.17;;;;;;;3.40;100.00;100088.77;4305236;81;28497;-76
2021/11/06 19:43:39;;;;;;;47.88;22.17;;;;;;;3.39;100.00;100076.98;4183147;84;28491;-80
2021/11/06 19:49:42;;;;;;;42.58;19.82;;;;;;;3.23;100.00;100070.58;4175815;83;33763;-78
2021/11/06 19:55:44;;;;;;;43.63;20.75;;;;;;;3.21;100.00;100069.91;4158456;84;28472;-76
2021/11/06 20:01:50;;;;;;;51.95;23.10;;;;;;;3.08;100.00;100076.16;4167552;84;28521;-78
2021/11/06 20:07:53;;;;;;;48.87;22.97;;;;;;;3.24;100.00;100071.42;4274254;82;28520;-79
2021/11/06 20:13:56;;;;;;;42.62;19.25;;;;;;;3.06;100.00;100076.30;4148752;84;28502;-81
2021/11/06 20:19:57;;;;;;;48.50;22.70;;;;;;;2.74;100.00;100070.58;4277753;82;28468;-82
2021/11/06 20:25:58;;;;;;;44.98;21.17;;;;;;;2.71;100.00;100059.44;4209730;83;28520;-82
2021/11/06 20:32:00;;;;;;;42.45;20.95;;;;;;;2.68;100.00;100053.11;4270212;82;28541;-84
2021/11/06 20:38:04;;;;;;;43.33;20.55;;;;;;;2.50;100.00;100060.63;4284692;82;28561;-81
2021/11/06 20:44:06;;;;;;;45.70;19.67;;;;;;;2.61;100.00;100062.19;4296004;82;28540;-82
2021/11/06 20:50:12;;;;;;;40.33;20.65;;;;;;;2.45;100.00;100067.72;4305824;81;28541;-83
2021/11/06 20:56:14;;;;;;;46.25;21.97;;;;;;;2.37;100.00;100069.78;4319694;81;28518;-84
2021/11/06 21:02:16;;;;;;;46.65;21.42;;;;;;;2.30;100.00;100065.25;4310909;81;28503;-77
2021/11/06 21:08:19;;;;;;;48.42;22.17;;;;;;;2.27;100.00;100061.58;4324089;81;28590;-77
2021/11/06 21:20:39;;;;;;;46.85;20.85;;;;;;;2.23;100.00;100049.09;4326873;81;20752;-83
2021/11/06 21:26:42;;;;;;;45.20;20.85;;;;;;;2.19;100.00;100041.11;4306276;81;28461;-82
2021/11/06 21:32:44;;;;;;;44.03;21.95;;;;;;;2.37;100.00;100039.27;4303805;81;28555;-81
2021/11/06 21:39:14;;;;;;;45.85;21.82;;;;;;;2.17;100.00;100039.08;4283204;81;28509;-83
2021/11/06 21:45:09;;;;;;;44.38;21.12;;;;;;;2.02;100.00;100033.46;4328369;81;28470;-81
2021/11/06 21:51:12;;;;;;;38.92;19.25;;;;;;;1.89;100.00;100043.95;4298035;81;28550;-81
2021/11/06 21:57:14;;;;;;;40.48;19.45;;;;;;;1.66;100.00;100032.92;4283508;83;28546;-84
2021/11/06 22:03:16;;;;;;;42.67;19.10;;;;;;;1.64;100.00;100031.77;4291551;82;28509;-81
2021/11/06 22:09:17;;;;;;;44.42;20.48;;;;;;;1.70;100.00;100028.16;4251694;82;28555;-82
2021/11/06 22:15:21;;;;;;;45.30;22.40;;;;;;;1.75;100.00;100020.10;4273457;82;28483;-84
2021/11/06 22:21:24;;;;;;;50.70;24.80;;;;;;;1.62;100.00;100005.90;4279273;82;28603;-83
2021/11/06 22:27:25;;;;;;;43.13;20.72;;;;;;;1.62;100.00;99997.09;4273726;82;28536;-83
2021/11/06 22:33:27;;;;;;;48.80;22.60;;;;;;;1.44;100.00;99994.42;4283640;82;28510;-82
2021/11/06 22:39:28;;;;;;;42.20;20.57;;;;;;;1.44;100.00;99980.66;4288153;82;28461;-82
2021/11/06 22:45:31;;;;;;;46.88;21.97;;;;;;;1.34;100.00;99966.16;4292264;82;28495;-83
2021/11/06 22:51:34;;;;;;;47.73;22.60;;;;;;;1.32;100.00;99961.98;4288786;82;28497;-81
2021/11/06 22:57:36;;;;;;;48.38;22.35;;;;;;;1.36;100.00;99952.26;4282769;82;28511;-81
2021/11/06 23:03:43;;;;;;;41.75;21.00;;;;;;;1.15;100.00;99941.94;4280793;82;28526;-84
2021/11/06 23:09:47;;;;;;;40.88;20.35;;;;;;;1.03;100.00;99952.35;4278703;82;28455;-82
2021/11/06 23:15:48;;;;;;;45.92;21.65;;;;;;;1.10;100.00;99943.70;4279720;82;28497;-82
2021/11/06 23:21:52;;;;;;;46.00;21.80;;;;;;;1.10;100.00;99934.91;4284630;82;28536;-81
2021/11/06 23:27:54;;;;;;;49.70;23.40;;;;;;;0.95;100.00;99916.02;4258876;82;28568;-81
2021/11/06 23:33:58;;;;;;;44.77;21.37;;;;;;;0.91;100.00;99904.06;4298546;81;28481;-81
2021/11/06 23:40:01;;;;;;;45.88;22.07;;;;;;;0.89;100.00;99877.72;4311857;82;28473;-81
2021/11/06 23:46:05;;;;;;;40.30;20.30;;;;;;;0.79;100.00;99879.11;4312501;81;28514;-81
2021/11/06 23:58:16;;;;;;;42.35;21.77;;;;;;;0.78;100.00;99853.62;4301305;82;28505;-82
